Date,TemperatureHighF,TemperatureAvgF,TemperatureLowF,DewpointHighF,DewpointAvgF,DewpointLowF,HumidityHigh,HumidityAvg,HumidityLow,PressureMaxIn,PressureMinIn,WindSpeedMaxMPH,WindSpeedAvgMPH,GustSpeedMaxMPH,PrecipitationSumIn
2013-1-1,74.1,67.6,60.7,70.9,66.3,60.4,100,96,88,30.16,30.01,6,3,0,0.01
2013-1-2,76.2,68.6,59.4,68.8,63.5,57.1,92,84,71,30.09,29.98,11,5,0,0.00
2013-1-3,77.5,69.2,62.4,68.3,63.4,57.9,90,82,69,30.08,29.99,11,4,0,0.00
2013-1-4,79.6,71.3,63.7,68.5,63.9,58.3,85,78,66,30.15,30.02,14,7,0,0.00
2013-1-5,79.3,73.1,69.3,67.5,62.2,57.7,82,69,61,30.19,30.05,15,10,0,0.00
2013-1-6,78.6,72.8,69.1,69.5,64.4,59.9,87,75,63,30.18,30.07,14,8,0,0.00
2013-1-7,77.4,71.3,63.5,68.9,63.6,54.3,96,77,58,30.11,29.97,13,6,23,0.00
2013-1-8,79.1,70.6,60.2,69.2,60.9,49.8,88,72,54,30.02,29.88,15,6,22,0.00
2013-1-9,76.9,69.9,63.4,71.2,66.1,61.1,93,88,77,30.03,29.92,13,5,25,0.00
2013-1-10,78.5,69.5,61.1,69.0,62.4,56.6,96,79,61,30.04,29.91,16,5,24,0.00
2013-1-11,78.8,69.6,59.9,71.0,62.8,54.4,95,80,63,29.96,29.85,7,3,11,0.00
2013-1-12,77.4,69.8,62.4,71.8,66.7,60.6,100,90,77,30.05,29.93,8,3,12,0.09
2013-1-13,76.7,70.0,64.3,72.8,68.5,64.0,100,95,84,30.05,29.94,8,3,12,0.53
2013-1-14,77.9,70.7,63.1,73.0,68.6,61.3,100,93,81,30.06,29.92,6,2,9,0.01
2013-1-15,74.3,68.7,64.5,72.2,68.3,64.0,100,99,90,29.98,29.89,8,2,10,1.01
2013-1-16,73.5,68.2,62.1,71.4,67.9,62.1,100,99,90,29.98,29.87,5,2,7,0.33
2013-1-17,72.4,68.1,64.2,69.8,67.2,64.2,100,97,88,29.96,29.85,4,1,6,0.06
2013-1-18,74.8,67.3,61.2,67.9,64.7,59.3,100,92,77,29.97,29.86,7,2,11,0.01
2013-1-19,74.2,68.2,63.2,68.7,64.9,61.0,98,90,72,30.04,29.91,9,3,11,0.01
2013-1-20,73.7,67.5,60.9,68.3,64.3,58.1,98,90,81,30.07,29.98,7,3,12,0.00
2013-1-21,77.1,67.6,58.8,69.3,63.5,57.5,97,87,75,30.13,30.01,12,4,18,0.00
2013-1-22,77.3,67.8,57.2,69.8,63.3,53.9,98,86,67,30.14,30.03,9,4,14,0.00
2013-1-23,74.0,66.9,59.1,68.9,64.2,57.7,97,91,78,30.12,30.02,11,3,15,0.00
2013-1-24,75.1,68.5,64.5,67.9,65.5,63.6,100,91,70,30.16,30.07,8,4,12,0.01
2013-1-25,72.2,67.0,61.6,68.7,65.6,60.3,100,95,82,30.18,30.06,6,3,12,0.19
2013-1-26,75.4,67.8,60.9,69.0,63.7,59.4,97,87,71,30.14,30.02,9,4,15,0.00
2013-1-27,74.1,67.3,63.2,68.5,64.1,59.9,100,89,79,30.11,29.98,6,2,7,0.13
2013-1-28,75.4,68.2,60.9,69.2,64.0,58.4,100,87,73,30.06,29.94,6,2,9,0.13
2013-1-29,74.4,68.3,64.6,71.3,67.3,64.5,100,97,86,30.09,29.97,9,3,12,0.57
2013-1-30,76.0,68.9,64.7,70.6,67.3,64.7,100,95,78,30.11,30.03,7,2,9,0.33
2013-1-31,73.7,68.3,62.8,70.6,67.1,62.2,100,96,86,30.12,30.04,6,2,10,0.01
2013-2-1,82.5,69.6,60.1,70.4,63.8,51.3,98,83,48,30.13,30.02,12,4,19,0.00
2013-2-2,74.4,67.1,58.5,67.5,59.3,46.9,96,77,43,30.18,30.07,11,4,16,0.00
2013-2-3,74.6,65.3,54.2,66.7,59.9,48.8,96,83,71,30.19,30.05,11,4,18,0.00
2013-2-4,77.8,68.9,60.3,67.7,61.4,54.6,92,77,63,30.12,30.01,14,5,21,0.00
2013-2-5,74.9,67.2,60.4,68.0,62.5,56.8,93,85,75,30.11,30.01,12,4,26,0.00
2013-2-6,77.0,69.4,62.9,70.4,65.7,60.4,97,88,74,30.10,30.02,10,3,16,0.00
2013-2-7,76.1,69.1,62.9,70.8,66.8,61.1,100,92,81,30.15,30.05,11,4,19,0.04
2013-2-8,75.2,68.3,60.8,70.6,64.2,58.3,94,87,78,30.17,30.07,10,4,18,0.00
2013-2-9,76.9,68.7,60.1,71.3,64.8,57.8,96,88,72,30.17,30.04,11,3,0,0.00
2013-2-10,78.0,69.5,61.1,69.7,63.7,56.5,95,82,62,30.20,30.08,12,5,0,0.00
2013-2-11,75.4,67.9,59.9,68.3,62.1,55.2,95,82,67,30.23,30.11,9,3,11,0.00
2013-2-12,75.5,67.5,59.2,67.1,62.9,57.5,96,86,72,30.19,30.07,9,3,14,0.00
2013-2-13,73.7,66.0,59.3,64.9,60.2,55.2,94,82,66,30.14,30.04,10,3,13,0.00
2013-2-14,73.5,64.6,56.9,65.8,59.6,54.0,93,84,73,30.14,30.01,9,4,19,0.00
2013-2-15,76.2,67.3,56.8,69.4,60.9,51.2,92,80,63,30.16,30.03,16,6,22,0.01
2013-2-16,75.8,68.6,63.3,68.3,64.1,60.6,100,86,66,30.17,30.04,14,6,24,0.21
2013-2-17,78.0,69.8,60.9,67.7,61.2,54.8,87,75,55,30.17,30.04,17,9,26,0.00
2013-2-18,74.1,69.0,65.4,68.2,62.7,58.3,98,81,68,30.17,30.04,14,8,23,0.24
2013-2-19,77.5,68.7,58.7,67.2,61.3,55.6,93,78,59,30.15,30.02,16,6,24,0.00
2013-2-20,78.3,69.6,60.9,69.7,63.5,58.3,92,81,65,30.16,30.03,14,6,23,0.00
2013-2-21,77.3,68.2,60.2,71.3,64.0,55.9,100,87,70,30.20,30.07,11,4,17,0.12
2013-2-22,75.1,66.8,62.2,68.8,64.8,61.6,100,94,72,30.18,30.04,9,3,15,0.28
2013-2-23,74.4,67.7,61.8,67.7,63.9,60.0,98,88,75,30.20,30.08,11,4,18,0.02
2013-2-24,76.1,68.3,60.4,68.4,64.2,59.7,99,87,74,30.13,30.01,14,5,25,0.02
2013-2-25,78.6,68.1,59.7,69.4,63.5,56.8,99,86,66,30.17,30.03,16,5,22,0.06
2013-2-26,78.5,70.2,59.0,67.0,61.5,56.1,95,75,57,30.17,30.06,15,7,22,0.01
2013-2-27,78.5,68.9,59.6,67.8,61.9,55.7,89,79,54,30.21,30.08,15,6,21,0.00
2013-2-28,77.9,67.6,57.9,66.8,59.0,50.4,87,75,56,30.22,30.08,14,6,21,0.00
2013-3-1,80.7,69.2,59.3,63.4,57.8,49.7,88,69,39,30.17,30.02,15,6,18,0.00
2013-3-2,80.4,68.8,56.5,66.1,57.8,47.2,89,69,51,30.18,30.02,17,6,22,0.00
2013-3-3,75.8,67.8,59.3,66.1,61.0,55.8,90,79,64,30.18,30.08,12,5,18,0.00
2013-3-4,76.7,68.0,58.6,68.4,60.9,52.3,92,79,55,30.20,30.07,12,4,21,0.00
2013-3-5,76.4,68.1,60.2,67.6,62.4,55.3,94,83,58,30.18,30.07,11,4,16,0.00
2013-3-6,74.1,66.7,60.4,68.5,63.6,57.6,100,90,68,30.18,30.09,10,3,16,0.17
2013-3-7,75.3,66.3,57.9,68.5,63.6,57.3,100,92,70,30.15,30.03,10,3,14,0.00
2013-3-8,73.9,66.8,59.6,68.8,63.7,58.0,97,90,81,30.10,29.95,6,3,9,0.00
2013-3-9,75.1,68.2,60.7,69.1,64.6,58.7,97,89,77,30.06,29.95,7,3,12,0.00
2013-3-10,76.6,69.3,61.3,71.8,66.7,60.0,100,92,79,30.08,29.95,11,3,13,0.00
2013-3-11,77.6,69.8,62.8,72.4,66.1,58.8,100,88,72,30.11,30.00,7,3,12,0.06
2013-3-12,72.9,68.3,65.4,70.9,68.0,65.2,100,99,92,30.12,29.99,5,1,6,0.50
2013-3-13,76.3,68.4,62.4,71.4,67.0,62.1,100,96,76,30.13,30.03,9,2,13,0.00
2013-3-14,76.9,67.3,60.2,70.3,65.5,58.3,100,94,77,30.14,30.02,6,2,11,0.37
2013-3-15,76.4,68.7,62.9,72.1,67.7,62.8,100,97,85,30.05,29.89,10,3,15,0.12
2013-3-16,72.6,68.7,65.0,68.8,66.8,64.4,99,94,85,30.04,29.93,5,1,9,0.01
2013-3-17,69.0,66.3,63.7,67.2,65.6,63.5,100,98,91,30.08,29.97,3,1,7,0.06
2013-3-18,73.8,66.5,62.7,67.0,64.8,62.4,100,95,77,30.08,29.98,7,2,12,0.02
2013-3-19,74.4,64.1,60.3,66.0,62.2,59.7,98,94,76,30.07,29.99,3,1,6,0.00
2013-3-21,78.0,70.5,63.0,70.5,67.1,62.4,99,90,74,30.18,30.04,8,3,0,0.00
2013-3-22,77.0,69.3,62.2,70.0,65.9,59.0,100,89,73,30.12,29.99,7,2,0,0.02
2013-3-23,73.0,68.0,64.0,69.1,66.8,63.7,100,96,87,30.07,29.98,5,2,0,0.02
2013-3-24,74.7,68.8,62.7,71.1,66.8,61.3,100,93,83,30.10,29.98,6,2,0,0.00
2013-3-25,75.1,69.3,64.9,71.0,67.8,64.3,100,95,85,30.07,29.98,7,2,0,0.13
2013-3-26,73.0,68.4,66.1,69.4,67.4,66.1,100,97,87,30.09,30.00,5,2,0,0.17
2013-3-27,72.7,67.9,64.1,69.9,66.7,64.1,100,96,86,30.09,29.97,7,2,11,0.01
2013-3-28,74.2,68.3,63.5,69.1,64.5,60.2,96,88,70,30.08,29.95,8,2,11,0.02
2013-3-29,76.8,68.0,61.5,69.8,65.3,59.5,100,91,77,30.11,30.01,9,3,13,0.06
2013-3-30,73.3,67.4,62.8,70.4,66.7,62.8,100,98,88,30.10,29.99,8,2,10,0.87
2013-3-31,72.8,66.9,63.9,70.4,66.5,63.9,100,99,91,30.07,29.97,7,2,8,0.39
2013-4-1,71.4,66.7,62.1,66.5,63.9,59.7,99,91,81,30.06,29.95,7,2,11,0.00
2013-4-2,73.2,66.5,61.6,65.9,63.3,59.6,98,90,75,30.11,30.00,6,2,7,0.04
2013-4-3,70.8,65.2,60.2,65.7,62.6,57.4,100,92,81,30.16,30.05,6,2,9,0.18
2013-4-4,74.9,67.9,59.6,69.3,65.3,59.3,100,92,76,30.15,30.04,7,3,12,0.00
2013-4-5,77.3,71.1,64.6,71.3,67.8,63.1,98,90,75,30.19,30.06,10,3,15,0.00
2013-4-6,78.6,72.6,67.0,72.6,68.3,63.5,98,87,74,30.23,30.12,10,3,13,0.00
2013-4-7,78.8,70.6,64.1,70.5,67.3,62.9,98,90,69,30.24,30.12,10,3,16,0.00
2013-4-8,77.1,69.9,63.6,70.3,66.1,62.0,100,88,68,30.15,30.03,11,4,16,0.07
2013-4-9,77.2,71.4,65.9,70.9,67.5,64.2,98,88,76,30.15,30.03,9,3,14,0.01
2013-4-10,78.4,71.2,64.0,71.8,66.8,60.7,97,86,70,30.14,30.02,10,3,13,0.00
2013-4-11,78.3,71.9,67.9,72.3,68.1,64.5,95,88,73,30.13,30.00,11,4,15,0.00
2013-4-12,75.9,69.6,64.4,70.2,66.2,61.8,97,89,76,30.06,29.98,8,3,11,0.00
2013-4-13,76.8,70.1,62.1,70.8,67.6,61.2,100,92,77,30.05,29.93,7,2,12,0.02
2013-4-14,75.7,70.1,65.2,71.4,68.7,64.3,100,95,85,30.05,29.94,5,1,7,0.00
2013-4-15,79.0,70.5,63.1,72.3,68.1,61.6,100,92,77,30.12,29.99,7,2,13,0.24
2013-4-16,76.7,70.7,65.3,72.0,69.3,64.7,100,95,84,30.16,30.05,6,2,10,0.01
2013-4-17,74.4,68.8,62.8,71.4,66.5,61.9,99,93,84,30.19,30.10,10,4,16,0.00
2013-4-18,78.9,70.8,62.6,72.5,66.8,60.7,97,88,73,30.18,30.10,12,4,20,0.00
2013-4-19,76.1,68.4,62.9,70.8,66.3,60.5,100,93,73,30.16,30.09,9,3,12,0.17
2013-4-20,78.5,70.4,62.4,71.2,67.2,61.8,100,91,68,30.16,30.07,7,3,11,0.02
2013-4-21,74.1,69.1,65.4,71.2,68.3,65.4,100,98,88,30.13,30.01,4,1,7,0.14
2013-4-22,78.3,71.3,64.9,72.2,68.9,64.9,100,92,75,30.12,30.02,6,2,12,0.00
2013-4-23,76.7,69.8,65.0,72.2,68.2,63.8,100,95,82,30.13,30.05,6,2,10,0.20
2013-4-24,75.2,69.7,64.4,71.2,68.6,64.3,100,97,84,30.15,30.05,6,1,12,0.43
2013-4-25,78.0,69.7,61.4,71.4,66.8,60.4,100,91,73,30.12,30.03,10,3,14,0.00
2013-4-26,76.7,70.3,62.8,70.7,66.2,59.4,97,87,77,30.11,30.02,11,3,18,0.00
2013-4-27,76.0,70.2,64.4,70.9,66.7,63.0,97,89,75,30.14,30.03,10,2,14,0.00
2013-4-28,76.3,69.8,62.9,72.6,67.9,62.1,100,94,79,30.12,30.00,8,3,13,0.09
2013-4-29,74.8,69.6,64.8,71.5,68.6,64.8,100,97,86,30.09,29.98,7,2,10,0.63
2013-4-30,73.7,68.4,63.5,72.0,68.1,63.0,100,99,92,30.10,30.00,8,2,14,0.22
2013-5-1,76.7,68.6,60.3,72.1,66.7,60.0,100,94,77,30.14,30.04,10,3,13,0.01
2013-5-2,76.3,69.5,63.5,71.4,66.7,61.4,100,91,82,30.16,30.08,10,3,15,0.00
2013-5-3,76.9,70.3,61.8,70.3,65.8,59.8,99,86,72,30.13,30.04,9,2,14,0.02
2013-5-4,74.3,68.9,64.1,70.0,67.3,63.2,100,95,82,30.07,29.97,6,2,9,0.21
2013-5-5,74.2,69.1,65.5,70.7,67.9,65.4,100,96,84,30.05,29.93,4,1,6,0.13
2013-5-6,77.2,70.3,63.2,72.5,67.4,62.6,99,91,79,30.01,29.92,7,2,11,0.00
2013-5-8,80.8,76.0,69.6,74.0,72.3,68.7,100,89,78,30.07,29.97,6,2,10,0.00
2013-5-9,77.0,72.3,68.5,74.4,71.5,67.9,100,97,89,30.13,30.01,5,1,7,0.85
2013-5-10,75.4,72.0,69.5,73.6,71.5,69.5,100,98,93,30.15,30.05,4,1,4,0.24
2013-5-11,77.3,72.6,66.6,73.4,71.0,66.6,100,95,85,30.13,30.03,4,1,8,0.09
2013-5-12,77.1,72.5,68.4,73.2,70.5,67.1,100,94,85,30.13,30.04,7,2,13,0.02
2013-5-13,79.1,73.2,67.7,72.0,68.9,63.9,97,87,71,30.12,30.04,8,3,14,0.00
2013-5-14,79.9,72.6,64.9,73.4,67.6,61.9,95,85,71,30.16,30.07,11,4,19,0.00
2013-5-15,79.8,73.0,65.5,71.3,67.0,62.4,95,82,67,30.18,30.08,13,4,19,0.00
2013-5-16,81.9,72.5,65.0,72.7,66.0,62.0,94,80,58,30.16,30.07,13,4,20,0.00
2013-5-17,78.0,70.7,65.6,71.4,66.9,63.3,100,88,68,30.12,30.03,10,4,16,0.39
2013-5-18,76.9,69.3,65.5,70.9,68.0,64.8,100,96,79,30.10,30.02,7,2,11,0.02
2013-5-19,73.0,68.8,65.1,71.1,68.3,64.8,100,98,90,30.06,29.96,5,1,9,0.35
2013-5-20,76.4,70.1,65.5,73.3,69.0,65.0,100,97,86,30.05,29.95,7,2,9,0.05
2013-5-21,77.8,71.1,63.5,73.9,68.9,62.4,100,93,76,30.08,29.98,6,2,9,0.04
2013-5-22,79.9,72.6,64.9,74.5,70.0,64.6,100,92,76,30.11,30.00,6,2,11,0.06
2013-5-23,76.8,72.0,67.8,74.2,70.7,67.5,100,96,86,30.10,30.01,7,2,12,0.00
2013-5-24,77.2,71.8,67.0,72.7,69.2,65.7,99,92,85,30.11,30.02,9,3,14,0.00
2013-5-25,80.4,72.7,65.5,74.4,69.3,63.8,100,89,73,30.12,30.01,12,4,20,0.01
2013-5-26,74.0,70.6,67.2,71.3,68.9,66.5,100,94,83,30.17,30.05,9,2,19,0.11
2013-5-27,74.2,69.8,67.3,71.2,68.2,65.1,100,95,85,30.17,30.08,7,2,12,0.01
2013-5-28,78.4,71.7,64.4,73.8,69.9,64.1,100,94,79,30.18,30.08,9,3,16,2.05
2013-5-29,76.2,70.4,66.3,73.4,69.9,66.3,100,98,90,30.15,30.06,6,2,10,0.13
2013-5-30,76.8,70.9,63.5,73.3,69.0,63.5,100,94,85,30.10,30.00,8,2,13,0.00
2013-5-31,76.2,71.9,65.6,73.0,69.8,64.3,99,93,87,30.11,30.00,7,2,12,0.00
2013-6-1,79.8,73.4,65.4,74.8,69.8,63.9,96,89,75,30.13,30.02,12,3,18,0.00
2013-6-2,80.1,72.3,64.6,75.0,69.2,62.1,97,90,78,30.14,30.04,11,4,19,0.00
2013-6-3,79.9,72.6,65.5,72.3,68.0,62.9,95,86,72,30.13,30.02,11,4,17,0.00
2013-6-4,79.1,72.1,64.9,74.0,67.8,61.7,95,86,74,30.10,29.98,10,4,16,0.00
2013-6-5,79.3,71.9,63.9,73.2,67.4,58.3,95,86,56,30.08,29.99,11,3,16,0.00
2013-6-6,77.1,71.4,64.8,70.7,66.8,61.2,94,86,74,30.09,29.98,12,4,19,0.00
2013-6-7,77.7,71.3,63.0,71.5,67.2,60.0,94,87,74,30.10,29.98,10,2,17,0.00
2013-6-8,78.3,71.5,65.7,71.6,68.5,64.6,100,90,73,30.11,30.02,10,2,14,0.00
2013-6-9,78.7,71.9,65.9,73.8,68.7,64.3,97,90,78,30.13,30.05,9,3,14,0.00
2013-6-10,80.6,71.9,63.7,73.1,68.3,62.4,97,89,71,30.09,30.03,12,3,17,0.00
2013-6-11,78.2,71.5,64.7,71.6,67.6,62.4,97,88,77,30.08,30.02,12,3,18,0.00
2013-6-12,80.2,72.5,64.0,74.5,67.8,61.9,96,86,65,30.13,30.02,15,5,22,0.00
2013-6-13,80.4,73.8,67.8,72.5,67.7,63.4,91,82,60,30.14,30.07,15,6,23,0.00
2013-6-14,75.4,71.0,64.1,70.8,66.8,59.8,97,87,76,30.13,30.02,11,4,19,0.00
2013-6-15,79.2,71.8,64.3,72.4,67.7,61.9,94,87,69,30.08,29.98,10,3,17,0.00
2013-6-16,80.0,72.2,62.4,73.6,67.4,59.3,95,86,64,30.08,29.98,10,4,17,0.00
2013-6-17,78.8,72.9,69.1,71.2,69.1,66.2,100,88,69,30.13,30.03,8,3,14,0.00
2013-6-18,78.9,73.1,67.5,72.3,69.0,65.7,98,87,74,30.13,30.05,11,4,15,0.00
2013-6-19,74.9,71.3,67.1,71.1,68.7,65.4,97,92,82,30.13,30.05,7,2,10,0.00
2013-6-20,76.7,71.4,64.0,71.6,68.1,62.2,97,90,80,30.12,30.02,6,2,11,0.01
2013-6-21,78.4,72.2,66.8,73.1,68.7,63.4,97,89,75,30.10,30.00,10,4,14,0.00
2013-6-22,80.8,73.2,67.2,71.8,68.4,64.9,95,85,71,30.13,30.02,14,5,19,0.00
2013-6-23,77.9,72.0,67.3,72.5,68.9,65.1,97,90,81,30.15,30.07,11,3,17,0.00
2013-6-24,77.7,69.7,63.7,71.5,66.2,62.3,96,89,77,30.15,30.09,8,2,14,0.00
2013-7-26,75.9,72.7,68.6,72.8,70.8,67.1,97,94,86,30.09,30.00,8,3,13,0.00
2013-7-27,80.1,72.4,63.5,73.7,68.5,62.0,97,88,71,30.08,29.98,10,3,21,0.00
2013-7-28,83.2,74.4,64.6,76.1,70.0,62.7,97,87,73,30.05,29.91,10,3,14,0.00
2013-7-29,80.5,72.4,67.9,75.2,70.7,66.4,100,94,80,30.07,29.86,7,1,12,0.14
2013-7-30,82.2,75.7,71.6,77.2,74.1,71.5,100,95,84,30.13,30.05,9,3,16,0.09
2013-7-31,84.3,76.8,69.3,74.4,70.2,64.3,99,81,66,30.13,30.00,16,6,25,0.00
2013-8-1,83.0,74.6,67.3,72.8,68.0,62.1,93,81,59,30.13,30.02,13,4,21,0.00
2013-8-2,80.1,72.8,65.4,74.1,68.8,63.0,94,88,71,30.08,30.01,10,3,18,0.00
2013-8-3,77.0,72.4,65.3,73.3,69.3,63.7,95,90,80,30.08,30.00,8,3,19,0.00
2013-8-4,79.0,73.7,68.3,74.4,70.0,66.0,95,88,76,30.06,29.98,11,2,15,0.00
2013-8-5,77.3,72.5,66.5,73.9,69.7,65.0,97,91,81,30.08,29.99,9,2,13,0.00
2013-8-6,76.4,71.3,65.8,73.1,69.5,64.5,100,94,83,30.07,30.01,8,2,17,0.22
2013-8-7,77.6,71.6,63.2,72.2,68.5,62.8,100,91,78,30.10,30.02,8,2,13,0.00
2013-8-8,80.1,72.6,65.1,73.0,68.8,63.3,98,88,76,30.10,30.03,8,3,14,0.00
2013-8-9,84.3,74.5,63.1,77.3,70.5,60.2,100,88,61,30.09,29.97,8,2,15,0.01
2013-8-10,80.1,74.6,70.5,77.3,73.9,70.5,100,98,89,30.06,29.98,10,4,15,0.46
2013-8-11,81.2,75.4,69.8,76.3,72.7,69.2,100,92,77,30.08,30.00,11,3,23,0.00
2013-8-12,80.4,74.1,67.6,76.7,71.0,65.6,96,90,81,30.08,29.99,12,3,17,0.00
2013-8-13,81.7,74.4,68.5,74.0,70.1,64.7,96,87,72,30.07,29.96,14,4,19,0.00
2013-8-14,81.0,73.4,66.4,74.3,70.0,65.2,96,89,75,30.07,29.96,12,3,19,0.00
2013-8-15,80.6,74.1,66.9,74.8,69.8,64.3,94,87,80,30.07,29.96,11,4,23,0.00
2013-8-19,81.8,75.9,72.6,74.6,72.8,71.1,99,91,70,30.06,29.98,8,3,17,0.00
2013-8-20,77.5,73.0,69.6,73.6,71.7,69.5,100,96,85,30.05,29.95,4,1,6,0.02
2013-8-21,83.3,74.2,68.5,75.4,71.1,67.2,100,90,68,30.03,29.95,8,2,13,0.06
2013-8-22,79.8,73.6,69.8,74.8,72.0,69.5,100,95,83,30.04,29.95,9,2,16,0.05
2013-8-23,78.8,71.9,65.1,73.9,69.7,64.5,100,93,77,30.05,29.98,8,2,15,0.03
2013-8-24,80.9,72.4,63.1,75.0,69.1,62.3,98,90,70,30.08,29.97,10,3,17,0.00
2013-8-25,84.1,74.5,66.5,76.1,70.3,64.0,96,87,72,30.12,30.00,15,5,20,0.00
2013-8-26,79.1,72.8,66.0,72.4,68.6,62.5,96,87,75,30.14,30.06,10,4,15,0.00
2013-8-27,81.3,73.6,64.9,73.9,67.2,59.6,92,81,66,30.12,30.01,11,4,19,0.00
2013-8-28,81.1,73.9,66.9,74.1,69.1,61.1,98,85,71,30.05,29.92,10,2,13,0.00
2013-8-29,77.8,71.4,65.3,72.7,69.6,64.8,100,94,80,30.03,29.92,5,2,10,0.71
2013-8-30,79.6,72.9,63.9,73.5,69.5,62.7,100,90,73,30.08,29.99,8,3,12,0.18
2013-8-31,81.0,73.6,66.4,73.7,69.8,64.0,100,88,70,30.08,29.97,12,4,20,0.00
2013-9-1,82.3,73.1,65.8,73.6,67.3,61.2,94,83,67,30.06,29.95,11,4,15,0.00
2013-9-2,81.2,73.3,65.6,74.6,68.5,61.6,94,85,65,30.07,29.98,11,3,16,0.00
2013-9-3,80.3,73.7,65.3,72.4,67.4,63.2,94,81,62,30.06,29.96,7,2,11,0.00
2013-9-4,80.4,72.8,64.1,71.9,66.6,59.2,95,81,59,30.08,29.98,8,2,14,0.00
2013-9-5,81.7,72.4,63.7,72.6,67.6,59.1,100,86,62,30.14,30.02,7,1,12,0.17
2013-9-6,79.4,72.3,64.8,73.2,68.9,63.3,100,90,74,30.12,30.03,6,1,10,0.00
2013-9-7,79.4,75.5,72.1,75.1,73.0,70.6,97,92,85,30.08,29.98,6,2,14,0.00
2013-9-8,79.8,72.3,64.5,74.3,70.1,63.3,99,93,76,30.12,30.03,9,2,15,0.08
2013-9-9,81.9,72.5,63.7,73.1,67.5,61.3,96,85,67,30.11,30.03,11,3,19,0.00
2013-9-10,83.2,73.5,64.1,75.5,68.5,60.9,96,85,64,30.09,29.99,11,2,18,0.00
2013-9-11,82.0,74.2,66.0,76.1,70.5,62.9,98,88,75,30.10,29.99,8,2,14,0.00
2013-9-12,81.5,74.0,67.0,75.3,72.0,66.3,100,94,78,30.04,29.94,5,1,9,0.00
2013-9-13,82.3,73.8,67.8,75.7,71.3,66.9,98,92,79,29.97,29.90,12,2,15,0.00
2013-9-14,81.4,72.8,65.3,75.6,70.6,64.1,100,93,76,30.00,29.90,7,1,13,0.17
2013-9-15,80.3,73.0,65.7,74.7,70.0,65.1,100,91,78,30.02,29.93,12,3,21,0.01
2013-9-16,85.4,77.2,66.6,73.8,68.2,61.5,90,74,54,30.06,29.96,13,5,23,0.00
2013-9-17,84.1,77.9,70.8,74.4,69.7,65.0,85,76,65,30.04,29.94,14,6,20,0.00
2013-9-18,81.3,74.8,68.8,72.7,67.9,63.8,87,79,68,30.04,29.97,10,3,15,0.00
2013-9-19,81.3,74.2,67.3,74.3,69.0,63.9,93,84,68,30.07,29.97,10,3,14,0.00
2013-9-20,82.1,73.6,67.8,71.8,66.4,63.7,88,79,65,30.07,30.01,13,4,24,0.00